sensor_id;sensor_type;location;lat;lon;timestamp;pressure;altitude;pressure_sealevel;temperature;humidity
63535;BME280;55128;50.230;18.944;2023-05-21T00:04:22;98920.03;;;15.74;78.26
63535;BME280;55128;50.230;18.944;2023-05-21T00:09:24;98923.66;;;15.73;79.02
63535;BME280;55128;50.230;18.944;2023-05-21T00:14:24;98912.41;;;15.82;78.32
63535;BME280;55128;50.230;18.944;2023-05-21T00:19:25;98916.97;;;15.80;78.51
63535;BME280;55128;50.230;18.944;2023-05-21T00:24:26;98919.28;;;15.86;78.52
63535;BME280;55128;50.230;18.944;2023-05-21T00:29:27;98926.53;;;15.70;79.12
63535;BME280;55128;50.230;18.944;2023-05-21T00:34:29;98919.38;;;15.85;78.80
63535;BME280;55128;50.230;18.944;2023-05-21T00:39:31;98921.88;;;15.73;79.10
63535;BME280;55128;50.230;18.944;2023-05-21T00:44:32;98920.16;;;15.87;78.74
63535;BME280;55128;50.230;18.944;2023-05-21T00:49:33;98919.09;;;15.75;79.11
63535;BME280;55128;50.230;18.944;2023-05-21T00:54:33;98910.69;;;15.81;78.67
63535;BME280;55128;50.230;18.944;2023-05-21T00:59:34;98907.16;;;15.81;78.86
63535;BME280;55128;50.230;18.944;2023-05-21T01:04:34;98897.69;;;15.75;79.18
63535;BME280;55128;50.230;18.944;2023-05-21T01:09:35;98905.50;;;15.78;79.19
63535;BME280;55128;50.230;18.944;2023-05-21T01:14:36;98894.91;;;15.77;78.88
63535;BME280;55128;50.230;18.944;2023-05-21T01:19:36;98893.38;;;15.87;78.57
63535;BME280;55128;50.230;18.944;2023-05-21T01:24:37;98892.25;;;15.77;79.39
63535;BME280;55128;50.230;18.944;2023-05-21T01:29:37;98889.56;;;15.77;79.26
63535;BME280;55128;50.230;18.944;2023-05-21T01:34:46;98882.97;;;15.82;79.20
63535;BME280;55128;50.230;18.944;2023-05-21T01:39:54;98886.38;;;15.70;79.68
63535;BME280;55128;50.230;18.944;2023-05-21T01:44:56;98876.81;;;15.66;80.00
63535;BME280;55128;50.230;18.944;2023-05-21T01:49:59;98873.25;;;15.65;80.08
63535;BME280;55128;50.230;18.944;2023-05-21T01:55:00;98878.44;;;15.68;79.70
63535;BME280;55128;50.230;18.944;2023-05-21T02:00:01;98875.28;;;15.62;80.07
63535;BME280;55128;50.230;18.944;2023-05-21T02:05:01;98868.22;;;15.61;80.14
63535;BME280;55128;50.230;18.944;2023-05-21T02:10:03;98857.59;;;15.59;80.29
63535;BME280;55128;50.230;18.944;2023-05-21T02:15:04;98860.00;;;15.64;80.51
63535;BME280;55128;50.230;18.944;2023-05-21T02:20:05;98865.72;;;15.58;80.43
63535;BME280;55128;50.230;18.944;2023-05-21T02:25:14;98854.84;;;15.32;81.49
63535;BME280;55128;50.230;18.944;2023-05-21T02:30:14;98850.72;;;15.26;81.87
63535;BME280;55128;50.230;18.944;2023-05-21T02:35:15;98846.81;;;15.32;81.82
63535;BME280;55128;50.230;18.944;2023-05-21T02:40:15;98852.63;;;15.24;82.09
63535;BME280;55128;50.230;18.944;2023-05-21T02:45:16;98851.09;;;15.20;82.32
63535;BME280;55128;50.230;18.944;2023-05-21T02:50:16;98846.13;;;15.14;82.65
63535;BME280;55128;50.230;18.944;2023-05-21T02:55:16;98833.81;;;15.11;82.62
63535;BME280;55128;50.230;18.944;2023-05-21T03:00:17;98841.63;;;15.14;82.09
63535;BME280;55128;50.230;18.944;2023-05-21T03:05:17;98841.91;;;15.10;82.45
63535;BME280;55128;50.230;18.944;2023-05-21T03:10:18;98831.88;;;14.99;82.62
63535;BME280;55128;50.230;18.944;2023-05-21T03:15:18;98829.09;;;15.01;82.63
63535;BME280;55128;50.230;18.944;2023-05-21T03:20:22;98833.69;;;14.99;82.82
63535;BME280;55128;50.230;18.944;2023-05-21T03:25:23;98827.50;;;14.98;82.19
63535;BME280;55128;50.230;18.944;2023-05-21T03:30:24;98836.84;;;15.05;81.97
63535;BME280;55128;50.230;18.944;2023-05-21T03:35:24;98829.91;;;15.17;81.39
63535;BME280;55128;50.230;18.944;2023-05-21T03:40:25;98833.63;;;15.29;80.78
63535;BME280;55128;50.230;18.944;2023-05-21T03:45:25;98834.13;;;15.35;80.08
63535;BME280;55128;50.230;18.944;2023-05-21T03:50:26;98828.72;;;15.50;79.37
63535;BME280;55128;50.230;18.944;2023-05-21T03:55:26;98823.56;;;15.61;78.88
63535;BME280;55128;50.230;18.944;2023-05-21T04:00:27;98828.34;;;15.70;78.32
63535;BME280;55128;50.230;18.944;2023-05-21T04:05:27;98825.00;;;15.81;77.93
63535;BME280;55128;50.230;18.944;2023-05-21T04:10:27;98824.84;;;16.11;76.18
63535;BME280;55128;50.230;18.944;2023-05-21T04:15:28;98821.13;;;16.27;75.35
63535;BME280;55128;50.230;18.944;2023-05-21T04:20:28;98831.13;;;16.65;73.65
63535;BME280;55128;50.230;18.944;2023-05-21T04:25:28;98836.78;;;16.87;72.79
63535;BME280;55128;50.230;18.944;2023-05-21T04:30:29;98835.94;;;17.13;71.87
63535;BME280;55128;50.230;18.944;2023-05-21T04:35:29;98840.88;;;17.57;70.43
63535;BME280;55128;50.230;18.944;2023-05-21T04:40:30;98837.63;;;18.39;67.45
63535;BME280;55128;50.230;18.944;2023-05-21T04:45:30;98851.00;;;18.27;66.02
63535;BME280;55128;50.230;18.944;2023-05-21T04:50:31;98845.22;;;19.85;64.43
63535;BME280;55128;50.230;18.944;2023-05-21T04:55:32;98846.03;;;21.26;58.49
63535;BME280;55128;50.230;18.944;2023-05-21T05:00:36;98856.97;;;22.07;53.47
63535;BME280;55128;50.230;18.944;2023-05-21T05:05:36;98853.53;;;22.65;52.09
63535;BME280;55128;50.230;18.944;2023-05-21T05:10:37;98868.91;;;23.23;49.85
63535;BME280;55128;50.230;18.944;2023-05-21T05:15:37;98856.28;;;23.61;48.97
63535;BME280;55128;50.230;18.944;2023-05-21T05:20:37;98857.19;;;24.17;46.03
63535;BME280;55128;50.230;18.944;2023-05-21T05:25:38;98864.44;;;24.44;46.07
63535;BME280;55128;50.230;18.944;2023-05-21T05:30:38;98860.75;;;25.17;43.77
63535;BME280;55128;50.230;18.944;2023-05-21T05:35:38;98862.94;;;24.96;43.45
63535;BME280;55128;50.230;18.944;2023-05-21T05:40:40;98868.66;;;25.29;43.11
63535;BME280;55128;50.230;18.944;2023-05-21T05:45:40;98867.09;;;25.78;41.99
63535;BME280;55128;50.230;18.944;2023-05-21T05:50:41;98857.97;;;25.88;41.30
63535;BME280;55128;50.230;18.944;2023-05-21T05:55:41;98859.50;;;27.00;39.25
63535;BME280;55128;50.230;18.944;2023-05-21T06:00:41;98869.50;;;27.73;37.96
63535;BME280;55128;50.230;18.944;2023-05-21T06:05:42;98864.19;;;28.28;37.36
63535;BME280;55128;50.230;18.944;2023-05-21T06:10:42;98874.00;;;28.77;34.77
63535;BME280;55128;50.230;18.944;2023-05-21T06:15:43;98869.44;;;28.38;35.82
63535;BME280;55128;50.230;18.944;2023-05-21T06:20:43;98869.69;;;28.82;35.52
63535;BME280;55128;50.230;18.944;2023-05-21T06:25:43;98868.78;;;28.67;34.59
63535;BME280;55128;50.230;18.944;2023-05-21T06:30:44;98857.22;;;29.64;34.57
63535;BME280;55128;50.230;18.944;2023-05-21T06:35:44;98856.50;;;29.85;32.96
63535;BME280;55128;50.230;18.944;2023-05-21T06:40:45;98856.22;;;28.58;34.85
63535;BME280;55128;50.230;18.944;2023-05-21T06:45:47;98852.53;;;29.35;33.48
63535;BME280;55128;50.230;18.944;2023-05-21T06:50:47;98846.88;;;30.77;32.06
63535;BME280;55128;50.230;18.944;2023-05-21T06:55:47;98858.31;;;31.24;30.70
63535;BME280;55128;50.230;18.944;2023-05-21T07:00:52;98845.16;;;31.12;30.54
63535;BME280;55128;50.230;18.944;2023-05-21T07:05:52;98841.28;;;31.91;29.69
63535;BME280;55128;50.230;18.944;2023-05-21T07:11:02;98840.91;;;31.38;29.79
63535;BME280;55128;50.230;18.944;2023-05-21T07:16:02;98834.25;;;32.17;28.25
63535;BME280;55128;50.230;18.944;2023-05-21T07:21:06;98839.94;;;32.77;28.45
63535;BME280;55128;50.230;18.944;2023-05-21T07:26:08;98829.47;;;34.19;26.37
63535;BME280;55128;50.230;18.944;2023-05-21T07:31:09;98825.16;;;32.91;27.94
63535;BME280;55128;50.230;18.944;2023-05-21T07:36:11;98824.50;;;33.76;25.93
63535;BME280;55128;50.230;18.944;2023-05-21T07:41:11;98835.22;;;34.18;25.36
63535;BME280;55128;50.230;18.944;2023-05-21T07:46:11;98829.91;;;35.25;24.57
63535;BME280;55128;50.230;18.944;2023-05-21T07:51:12;98821.13;;;34.39;24.87
63535;BME280;55128;50.230;18.944;2023-05-21T07:56:12;98822.16;;;35.40;25.02
63535;BME280;55128;50.230;18.944;2023-05-21T08:01:13;98824.88;;;35.15;23.72
63535;BME280;55128;50.230;18.944;2023-05-21T08:06:13;98816.22;;;34.80;24.02
63535;BME280;55128;50.230;18.944;2023-05-21T08:11:14;98818.44;;;35.90;23.06
63535;BME280;55128;50.230;18.944;2023-05-21T08:16:14;98811.84;;;36.10;23.07
63535;BME280;55128;50.230;18.944;2023-05-21T08:21:15;98810.53;;;36.61;22.05
63535;BME280;55128;50.230;18.944;2023-05-21T08:26:16;98814.81;;;35.28;22.77
63535;BME280;55128;50.230;18.944;2023-05-21T08:31:17;98817.91;;;35.38;21.92
63535;BME280;55128;50.230;18.944;2023-05-21T08:36:18;98816.06;;;36.61;20.92
63535;BME280;55128;50.230;18.944;2023-05-21T08:41:20;98814.50;;;36.65;20.13
63535;BME280;55128;50.230;18.944;2023-05-21T08:46:24;98816.75;;;37.52;18.59
63535;BME280;55128;50.230;18.944;2023-05-21T08:51:25;98800.00;;;37.59;19.57
63535;BME280;55128;50.230;18.944;2023-05-21T08:56:26;98803.25;;;37.56;19.66
63535;BME280;55128;50.230;18.944;2023-05-21T09:01:26;98799.56;;;35.69;20.85
63535;BME280;55128;50.230;18.944;2023-05-21T09:06:27;98796.16;;;36.83;20.45
63535;BME280;55128;50.230;18.944;2023-05-21T09:11:28;98801.09;;;36.69;19.46
63535;BME280;55128;50.230;18.944;2023-05-21T09:16:28;98806.25;;;37.19;20.00
63535;BME280;55128;50.230;18.944;2023-05-21T09:21:29;98785.28;;;35.90;20.21
63535;BME280;55128;50.230;18.944;2023-05-21T09:26:30;98772.97;;;35.49;20.01
63535;BME280;55128;50.230;18.944;2023-05-21T09:31:31;98780.47;;;34.60;21.32
63535;BME280;55128;50.230;18.944;2023-05-21T09:36:36;98776.34;;;35.51;20.68
63535;BME280;55128;50.230;18.944;2023-05-21T09:41:37;98777.38;;;35.75;19.88
63535;BME280;55128;50.230;18.944;2023-05-21T09:46:41;98788.59;;;33.24;22.33
63535;BME280;55128;50.230;18.944;2023-05-21T09:51:43;98777.63;;;31.46;24.35
63535;BME280;55128;50.230;18.944;2023-05-21T09:56:44;98763.81;;;30.33;25.77
63535;BME280;55128;50.230;18.944;2023-05-21T10:01:51;98768.38;;;29.22;27.41
63535;BME280;55128;50.230;18.944;2023-05-21T10:06:52;98761.41;;;28.04;29.06
63535;BME280;55128;50.230;18.944;2023-05-21T10:11:53;98750.22;;;27.99;29.21
63535;BME280;55128;50.230;18.944;2023-05-21T10:16:54;98749.53;;;27.88;29.55
63535;BME280;55128;50.230;18.944;2023-05-21T10:21:55;98740.97;;;28.00;29.45
63535;BME280;55128;50.230;18.944;2023-05-21T10:26:56;98753.28;;;27.48;30.64
63535;BME280;55128;50.230;18.944;2023-05-21T10:31:57;98739.22;;;27.11;30.25
63535;BME280;55128;50.230;18.944;2023-05-21T10:37:00;98742.47;;;26.49;29.81
63535;BME280;55128;50.230;18.944;2023-05-21T10:52:54;98731.78;;;26.56;28.85
63535;BME280;55128;50.230;18.944;2023-05-21T11:03:15;98718.84;;;26.74;29.58
63535;BME280;55128;50.230;18.944;2023-05-21T11:08:27;98723.25;;;26.59;29.54
63535;BME280;55128;50.230;18.944;2023-05-21T11:13:47;98715.09;;;26.26;30.09
63535;BME280;55128;50.230;18.944;2023-05-21T11:24:00;98718.97;;;26.07;30.55
63535;BME280;55128;50.230;18.944;2023-05-21T11:34:20;98695.41;;;25.82;30.69
63535;BME280;55128;50.230;18.944;2023-05-21T11:39:38;98703.50;;;26.32;30.40
63535;BME280;55128;50.230;18.944;2023-05-21T11:44:48;98695.69;;;26.21;30.88
63535;BME280;55128;50.230;18.944;2023-05-21T11:49:48;98688.13;;;25.90;31.40
63535;BME280;55128;50.230;18.944;2023-05-21T11:54:53;98696.69;;;26.20;31.57
63535;BME280;55128;50.230;18.944;2023-05-21T11:59:56;98701.59;;;26.08;29.72
63535;BME280;55128;50.230;18.944;2023-05-21T12:04:57;98710.28;;;26.12;31.30
63535;BME280;55128;50.230;18.944;2023-05-21T12:09:59;98699.56;;;26.02;31.77
63535;BME280;55128;50.230;18.944;2023-05-21T12:15:00;98693.28;;;26.18;31.75
63535;BME280;55128;50.230;18.944;2023-05-21T12:20:02;98684.97;;;26.36;31.32
63535;BME280;55128;50.230;18.944;2023-05-21T12:25:07;98693.84;;;25.71;32.30
63535;BME280;55128;50.230;18.944;2023-05-21T12:30:11;98705.38;;;25.65;32.42
63535;BME280;55128;50.230;18.944;2023-05-21T12:35:21;98673.75;;;25.64;32.52
63535;BME280;55128;50.230;18.944;2023-05-21T12:40:33;98690.28;;;25.62;32.01
63535;BME280;55128;50.230;18.944;2023-05-21T12:45:36;98702.44;;;25.92;32.78
63535;BME280;55128;50.230;18.944;2023-05-21T12:50:38;98688.19;;;25.56;32.80
63535;BME280;55128;50.230;18.944;2023-05-21T12:55:39;98680.44;;;25.86;32.48
63535;BME280;55128;50.230;18.944;2023-05-21T13:00:40;98670.56;;;25.76;32.70
63535;BME280;55128;50.230;18.944;2023-05-21T13:05:42;98683.84;;;25.88;32.25
63535;BME280;55128;50.230;18.944;2023-05-21T13:10:42;98664.91;;;25.53;32.45
63535;BME280;55128;50.230;18.944;2023-05-21T13:15:42;98674.38;;;25.41;32.85
63535;BME280;55128;50.230;18.944;2023-05-21T13:20:43;98674.50;;;25.31;33.54
63535;BME280;55128;50.230;18.944;2023-05-21T13:25:43;98652.13;;;25.11;33.44
63535;BME280;55128;50.230;18.944;2023-05-21T13:30:43;98655.78;;;25.28;33.64
63535;BME280;55128;50.230;18.944;2023-05-21T13:35:44;98672.06;;;25.63;32.38
63535;BME280;55128;50.230;18.944;2023-05-21T13:40:50;98668.78;;;26.02;33.27
63535;BME280;55128;50.230;18.944;2023-05-21T13:45:50;98661.13;;;25.46;33.21
63535;BME280;55128;50.230;18.944;2023-05-21T13:50:51;98663.03;;;25.46;31.78
63535;BME280;55128;50.230;18.944;2023-05-21T13:55:52;98659.94;;;25.40;32.10
63535;BME280;55128;50.230;18.944;2023-05-21T14:00:53;98654.72;;;25.64;31.41
63535;BME280;55128;50.230;18.944;2023-05-21T14:05:54;98656.22;;;25.41;32.20
63535;BME280;55128;50.230;18.944;2023-05-21T14:10:55;98657.81;;;25.69;32.12
63535;BME280;55128;50.230;18.944;2023-05-21T14:15:55;98655.63;;;25.30;32.00
63535;BME280;55128;50.230;18.944;2023-05-21T14:20:55;98646.72;;;24.85;31.65
63535;BME280;55128;50.230;18.944;2023-05-21T14:25:56;98647.41;;;25.13;30.79
63535;BME280;55128;50.230;18.944;2023-05-21T14:30:56;98649.13;;;24.88;29.57
63535;BME280;55128;50.230;18.944;2023-05-21T14:35:56;98644.91;;;24.94;32.31
63535;BME280;55128;50.230;18.944;2023-05-21T14:40:57;98631.34;;;24.94;31.87
63535;BME280;55128;50.230;18.944;2023-05-21T14:45:57;98651.59;;;24.73;33.21
63535;BME280;55128;50.230;18.944;2023-05-21T14:50:58;98650.72;;;24.47;33.39
63535;BME280;55128;50.230;18.944;2023-05-21T14:55:58;98652.88;;;24.61;33.60
63535;BME280;55128;50.230;18.944;2023-05-21T15:00:58;98654.56;;;24.62;35.13
63535;BME280;55128;50.230;18.944;2023-05-21T15:05:59;98663.25;;;24.66;33.23
63535;BME280;55128;50.230;18.944;2023-05-21T15:10:59;98655.75;;;24.59;34.82
63535;BME280;55128;50.230;18.944;2023-05-21T15:16:00;98658.94;;;24.81;34.93
63535;BME280;55128;50.230;18.944;2023-05-21T15:21:00;98654.41;;;24.45;35.96
63535;BME280;55128;50.230;18.944;2023-05-21T15:26:00;98650.97;;;24.35;38.03
63535;BME280;55128;50.230;18.944;2023-05-21T15:31:01;98661.97;;;24.34;37.95
63535;BME280;55128;50.230;18.944;2023-05-21T15:36:01;98664.53;;;24.35;37.51
63535;BME280;55128;50.230;18.944;2023-05-21T15:41:02;98646.72;;;24.15;39.17
63535;BME280;55128;50.230;18.944;2023-05-21T15:46:02;98643.63;;;24.10;38.85
63535;BME280;55128;50.230;18.944;2023-05-21T15:51:03;98643.03;;;24.16;38.69
63535;BME280;55128;50.230;18.944;2023-05-21T15:56:03;98663.28;;;23.76;37.93
63535;BME280;55128;50.230;18.944;2023-05-21T16:01:03;98659.28;;;23.80;37.65
63535;BME280;55128;50.230;18.944;2023-05-21T16:06:04;98647.22;;;23.92;38.27
63535;BME280;55128;50.230;18.944;2023-05-21T16:11:06;98652.06;;;23.71;38.60
63535;BME280;55128;50.230;18.944;2023-05-21T16:16:06;98655.38;;;23.64;38.71
63535;BME280;55128;50.230;18.944;2023-05-21T16:21:07;98657.84;;;23.58;38.96
63535;BME280;55128;50.230;18.944;2023-05-21T16:26:08;98641.03;;;23.72;38.67
63535;BME280;55128;50.230;18.944;2023-05-21T16:31:09;98658.00;;;23.56;38.73
63535;BME280;55128;50.230;18.944;2023-05-21T16:36:11;98666.75;;;23.68;37.71
63535;BME280;55128;50.230;18.944;2023-05-21T16:41:12;98658.22;;;23.63;38.02
63535;BME280;55128;50.230;18.944;2023-05-21T16:46:13;98669.47;;;23.22;37.49
63535;BME280;55128;50.230;18.944;2023-05-21T16:51:13;98652.72;;;22.99;38.21
63535;BME280;55128;50.230;18.944;2023-05-21T16:56:13;98663.56;;;22.99;38.73
63535;BME280;55128;50.230;18.944;2023-05-21T17:01:14;98663.69;;;22.88;38.13
63535;BME280;55128;50.230;18.944;2023-05-21T17:06:14;98670.31;;;22.76;38.03
63535;BME280;55128;50.230;18.944;2023-05-21T17:11:16;98662.22;;;22.66;38.54
63535;BME280;55128;50.230;18.944;2023-05-21T17:16:16;98663.06;;;22.66;38.87
63535;BME280;55128;50.230;18.944;2023-05-21T17:21:17;98666.78;;;22.56;39.23
63535;BME280;55128;50.230;18.944;2023-05-21T17:26:18;98662.28;;;22.37;39.96
63535;BME280;55128;50.230;18.944;2023-05-21T17:31:18;98663.56;;;22.32;40.13
63535;BME280;55128;50.230;18.944;2023-05-21T17:36:18;98677.09;;;22.13;40.42
63535;BME280;55128;50.230;18.944;2023-05-21T17:41:19;98670.09;;;22.10;40.32
63535;BME280;55128;50.230;18.944;2023-05-21T17:46:20;98670.69;;;22.04;40.76
63535;BME280;55128;50.230;18.944;2023-05-21T17:51:21;98669.09;;;21.82;41.54
63535;BME280;55128;50.230;18.944;2023-05-21T17:56:21;98676.94;;;21.76;41.89
63535;BME280;55128;50.230;18.944;2023-05-21T18:01:21;98676.03;;;21.55;42.44
63535;BME280;55128;50.230;18.944;2023-05-21T18:06:22;98675.19;;;21.55;42.55
63535;BME280;55128;50.230;18.944;2023-05-21T18:11:23;98682.34;;;21.35;42.90
63535;BME280;55128;50.230;18.944;2023-05-21T18:16:25;98679.16;;;21.20;43.07
63535;BME280;55128;50.230;18.944;2023-05-21T18:21:25;98676.56;;;21.09;42.90
63535;BME280;55128;50.230;18.944;2023-05-21T18:26:25;98671.81;;;20.91;43.12
63535;BME280;55128;50.230;18.944;2023-05-21T18:31:26;98680.84;;;20.81;43.16
63535;BME280;55128;50.230;18.944;2023-05-21T18:36:26;98675.34;;;20.61;43.75
63535;BME280;55128;50.230;18.944;2023-05-21T18:41:29;98672.69;;;20.50;44.02
63535;BME280;55128;50.230;18.944;2023-05-21T18:46:30;98669.47;;;20.35;44.26
63535;BME280;55128;50.230;18.944;2023-05-21T18:51:30;98662.03;;;20.27;44.71
63535;BME280;55128;50.230;18.944;2023-05-21T18:56:31;98674.38;;;20.09;45.51
63535;BME280;55128;50.230;18.944;2023-05-21T19:01:34;98682.88;;;19.93;45.76
63535;BME280;55128;50.230;18.944;2023-05-21T19:06:35;98687.06;;;19.86;46.06
63535;BME280;55128;50.230;18.944;2023-05-21T19:11:35;98684.06;;;19.79;46.76
63535;BME280;55128;50.230;18.944;2023-05-21T19:16:36;98700.09;;;19.69;47.14
63535;BME280;55128;50.230;18.944;2023-05-21T19:21:37;98689.59;;;19.55;47.27
63535;BME280;55128;50.230;18.944;2023-05-21T19:26:37;98707.72;;;19.41;48.18
63535;BME280;55128;50.230;18.944;2023-05-21T19:31:37;98706.16;;;19.39;48.79
63535;BME280;55128;50.230;18.944;2023-05-21T19:36:38;98699.78;;;19.29;48.85
63535;BME280;55128;50.230;18.944;2023-05-21T19:41:38;98709.00;;;19.15;49.37
63535;BME280;55128;50.230;18.944;2023-05-21T19:46:39;98707.16;;;19.15;49.88
63535;BME280;55128;50.230;18.944;2023-05-21T19:51:39;98694.31;;;18.85;50.82
63535;BME280;55128;50.230;18.944;2023-05-21T19:56:40;98708.09;;;18.80;51.42
63535;BME280;55128;50.230;18.944;2023-05-21T20:01:40;98708.28;;;18.55;51.70
63535;BME280;55128;50.230;18.944;2023-05-21T20:06:42;98700.56;;;18.50;51.47
63535;BME280;55128;50.230;18.944;2023-05-21T20:11:42;98696.63;;;18.43;51.75
63535;BME280;55128;50.230;18.944;2023-05-21T20:16:43;98694.28;;;18.27;52.43
63535;BME280;55128;50.230;18.944;2023-05-21T20:21:46;98689.13;;;18.24;52.42
63535;BME280;55128;50.230;18.944;2023-05-21T20:26:46;98692.41;;;18.16;52.44
63535;BME280;55128;50.230;18.944;2023-05-21T20:31:46;98691.28;;;18.08;52.65
63535;BME280;55128;50.230;18.944;2023-05-21T20:36:47;98686.19;;;17.92;53.16
63535;BME280;55128;50.230;18.944;2023-05-21T20:41:47;98682.78;;;17.90;53.03
63535;BME280;55128;50.230;18.944;2023-05-21T20:46:47;98687.84;;;17.81;53.18
63535;BME280;55128;50.230;18.944;2023-05-21T20:51:48;98675.25;;;17.58;53.79
63535;BME280;55128;50.230;18.944;2023-05-21T20:56:48;98674.53;;;17.56;53.59
63535;BME280;55128;50.230;18.944;2023-05-21T21:01:49;98684.97;;;17.47;53.48
63535;BME280;55128;50.230;18.944;2023-05-21T21:06:51;98673.81;;;17.41;53.32
63535;BME280;55128;50.230;18.944;2023-05-21T21:11:52;98673.00;;;17.27;53.67
63535;BME280;55128;50.230;18.944;2023-05-21T21:16:52;98684.06;;;17.23;53.55
63535;BME280;55128;50.230;18.944;2023-05-21T21:21:53;98681.44;;;17.10;53.64
63535;BME280;55128;50.230;18.944;2023-05-21T21:26:54;98684.03;;;16.99;53.48
63535;BME280;55128;50.230;18.944;2023-05-21T21:31:55;98687.56;;;16.99;53.24
63535;BME280;55128;50.230;18.944;2023-05-21T21:36:56;98677.38;;;16.92;53.59
63535;BME280;55128;50.230;18.944;2023-05-21T21:42:16;98677.59;;;16.88;53.51
63535;BME280;55128;50.230;18.944;2023-05-21T21:47:17;98688.94;;;16.79;53.75
63535;BME280;55128;50.230;18.944;2023-05-21T21:52:17;98691.84;;;16.63;54.26
63535;BME280;55128;50.230;18.944;2023-05-21T21:57:18;98684.00;;;16.60;54.33
63535;BME280;55128;50.230;18.944;2023-05-21T22:02:18;98696.22;;;16.51;54.29
63535;BME280;55128;50.230;18.944;2023-05-21T22:07:18;98695.88;;;16.30;54.65
63535;BME280;55128;50.230;18.944;2023-05-21T22:12:19;98696.84;;;16.29;55.22
63535;BME280;55128;50.230;18.944;2023-05-21T22:17:21;98686.09;;;16.17;55.20
63535;BME280;55128;50.230;18.944;2023-05-21T22:22:22;98689.84;;;16.01;55.82
63535;BME280;55128;50.230;18.944;2023-05-21T22:27:23;98686.13;;;15.89;55.89
63535;BME280;55128;50.230;18.944;2023-05-21T22:32:23;98679.69;;;15.79;56.28
63535;BME280;55128;50.230;18.944;2023-05-21T22:37:24;98671.75;;;15.78;56.31
63535;BME280;55128;50.230;18.944;2023-05-21T22:42:25;98683.44;;;15.77;56.24
63535;BME280;55128;50.230;18.944;2023-05-21T22:47:25;98674.75;;;15.59;56.36
63535;BME280;55128;50.230;18.944;2023-05-21T22:52:26;98672.78;;;15.48;56.85
63535;BME280;55128;50.230;18.944;2023-05-21T22:57:27;98660.50;;;15.31;56.85
63535;BME280;55128;50.230;18.944;2023-05-21T23:02:28;98662.25;;;15.32;56.61
63535;BME280;55128;50.230;18.944;2023-05-21T23:07:28;98657.88;;;15.16;56.89
63535;BME280;55128;50.230;18.944;2023-05-21T23:12:28;98658.75;;;15.17;56.70
63535;BME280;55128;50.230;18.944;2023-05-21T23:17:29;98660.16;;;15.08;56.91
63535;BME280;55128;50.230;18.944;2023-05-21T23:22:29;98662.19;;;15.05;56.59
63535;BME280;55128;50.230;18.944;2023-05-21T23:27:30;98658.75;;;14.88;57.25
63535;BME280;55128;50.230;18.944;2023-05-21T23:32:31;98656.56;;;14.95;57.02
63535;BME280;55128;50.230;18.944;2023-05-21T23:37:31;98660.22;;;14.80;56.83
63535;BME280;55128;50.230;18.944;2023-05-21T23:42:31;98658.97;;;14.71;57.17
63535;BME280;55128;50.230;18.944;2023-05-21T23:47:31;98662.13;;;14.77;56.63
63535;BME280;55128;50.230;18.944;2023-05-21T23:52:32;98655.53;;;14.83;56.66
63535;BME280;55128;50.230;18.944;2023-05-21T23:57:32;98655.84;;;14.64;56.76
